Miami Beach, Washington
Current Conditions -  °F | °C
As of 6:35 AM on Sunday 23 Nov 2014 (Local Time) from KPWT Reporting Station
Overcast Overcast  
Wind Chill: 42°   Ceiling: 600
Heat Index: 46°   Visibility: 10mi
Dew Point: 46°   Wind: 8mph
Humidity: 100%   Direction: 190°S
Pressure: 30.1"   Gusts: NA
Location:  47.6282°N, 122.837°W
Report Text: KPWT 231435Z AUTO 19007KT 10SM BKN006 BKN014 OVC020 08/08 A3010 RMK AO1 P0005
Loading
Personal Weather Stations






























Interactive Weather Map New forecast layout! Learn more

10-Day Weather Forecast

Advertisements
Track Severe Weather on mobile